Time;durP1;ratioP1;P1;durP2;ratioP2;P2;SDS_P1;SDS_P2;PMS_P1;PMS_P2;Temp;Humidity;BMP_temperature;BMP_pressure;BME280_temperature;BME280_humidity;BME280_pressure;Samples;Min_cycle;Max_cycle;Signal;HPM_P1;HPM_P2
2023/01/27 00:02:00;;;;;;;13.73;10.70;;;5.40;96.70;;;;;;5068074;28;20404;-90
2023/01/27 00:04:25;;;;;;;15.88;10.80;;;5.30;96.80;;;;;;5052172;28;20419;-88
2023/01/27 00:06:51;;;;;;;15.55;11.43;;;5.20;96.80;;;;;;5068512;28;20964;-90
2023/01/27 00:09:17;;;;;;;18.10;12.00;;;5.20;96.80;;;;;;5051298;28;20478;-89
2023/01/27 00:14:27;;;;;;;15.30;11.63;;;5.10;96.90;;;;;;5068123;28;20412;-91
2023/01/27 00:16:52;;;;;;;14.95;11.73;;;5.10;97.00;;;;;;5051328;28;20408;-90
2023/01/27 00:19:18;;;;;;;16.63;11.68;;;5.10;97.10;;;;;;5051481;28;20445;-89
2023/01/27 00:24:35;;;;;;;18.10;12.63;;;5.10;97.20;;;;;;5067248;28;20411;-89
2023/01/27 00:27:01;;;;;;;18.30;12.20;;;5.10;97.30;;;;;;5067715;28;20423;-89
2023/01/27 00:29:27;;;;;;;15.70;11.65;;;5.00;97.20;;;;;;5051510;28;20488;-88
2023/01/27 00:34:40;;;;;;;14.73;10.68;;;5.00;97.20;;;;;;5068177;28;20907;-90
2023/01/27 00:37:06;;;;;;;14.40;10.33;;;5.00;97.20;;;;;;5068638;28;20411;-90
2023/01/27 00:39:32;;;;;;;15.60;10.77;;;5.00;97.00;;;;;;5051224;28;20400;-90
2023/01/27 00:41:58;;;;;;;13.53;9.93;;;5.20;96.90;;;;;;5051090;28;20499;-90
2023/01/27 00:44:23;;;;;;;13.98;10.52;;;5.00;96.90;;;;;;5068102;28;20403;-88
2023/01/27 00:46:49;;;;;;;15.32;10.10;;;5.00;96.70;;;;;;5068248;28;20423;-89
2023/01/27 00:49:15;;;;;;;12.98;10.20;;;5.00;96.60;;;;;;5051483;28;20411;-90
2023/01/27 00:51:41;;;;;;;13.25;10.07;;;5.00;96.70;;;;;;5050585;28;20400;-89
2023/01/27 00:54:07;;;;;;;14.88;10.02;;;5.20;96.70;;;;;;5067730;28;20869;-89
2023/01/27 00:56:32;;;;;;;13.77;10.18;;;5.50;96.80;;;;;;5067674;28;20415;-90
2023/01/27 00:58:58;;;;;;;13.85;10.30;;;5.00;96.60;;;;;;5067741;28;20787;-88
2023/01/27 01:01:24;;;;;;;13.37;10.00;;;5.20;96.70;;;;;;5067434;28;20403;-91
2023/01/27 01:03:50;;;;;;;14.53;9.73;;;5.00;96.70;;;;;;5051494;28;20396;-90
2023/01/27 01:06:17;;;;;;;13.25;9.65;;;5.00;96.60;;;;;;5067150;28;20505;-90
2023/01/27 01:08:43;;;;;;;13.43;9.50;;;5.00;96.60;;;;;;5067877;28;20391;-90
2023/01/27 01:11:14;;;;;;;13.10;9.80;;;5.00;96.50;;;;;;5050623;28;20748;-91
2023/01/27 01:13:41;;;;;;;12.03;9.27;;;5.00;96.60;;;;;;5050974;28;20467;-90
2023/01/27 01:16:08;;;;;;;14.63;9.90;;;4.90;96.70;;;;;;5050803;28;20487;-89
2023/01/27 01:18:34;;;;;;;13.48;9.63;;;5.00;96.70;;;;;;5050834;28;20415;-90
2023/01/27 01:20:59;;;;;;;14.50;9.57;;;4.90;96.70;;;;;;5067406;28;20399;-89
2023/01/27 01:23:25;;;;;;;13.53;9.60;;;5.00;96.60;;;;;;5050156;28;21172;-89
2023/01/27 01:25:53;;;;;;;12.73;9.70;;;5.00;96.70;;;;;;5067362;28;20414;-89
2023/01/27 01:28:19;;;;;;;14.98;9.75;;;4.90;96.70;;;;;;5050578;28;21349;-90
2023/01/27 01:30:44;;;;;;;15.32;9.90;;;4.90;96.70;;;;;;5050338;28;20978;-89
2023/01/27 01:33:10;;;;;;;12.95;9.52;;;4.90;96.80;;;;;;5050684;28;20482;-90
2023/01/27 01:35:37;;;;;;;13.73;9.43;;;4.80;96.90;;;;;;5049914;28;20407;-90
2023/01/27 01:38:02;;;;;;;14.37;9.73;;;4.80;96.80;;;;;;5067145;28;20472;-89
2023/01/27 01:40:28;;;;;;;16.27;9.83;;;4.80;96.80;;;;;;5050565;28;20404;-89
2023/01/27 01:42:59;;;;;;;17.08;9.48;;;4.90;96.80;;;;;;5050307;28;20403;-91
2023/01/27 01:45:31;;;;;;;15.10;9.27;;;4.80;96.80;;;;;;5049932;28;20407;-88
2023/01/27 01:48:06;;;;;;;16.38;9.85;;;5.20;97.00;;;;;;5067031;28;20432;-90
2023/01/27 01:50:32;;;;;;;13.68;9.45;;;4.80;96.90;;;;;;5050163;28;20422;-89
2023/01/27 01:53:00;;;;;;;13.17;8.73;;;4.80;96.90;;;;;;5066325;28;20890;-90
2023/01/27 01:55:26;;;;;;;13.48;8.77;;;4.80;96.90;;;;;;5050226;28;20404;-90
2023/01/27 01:57:53;;;;;;;12.55;8.45;;;4.80;97.00;;;;;;5066612;28;20769;-90
2023/01/27 02:00:19;;;;;;;14.80;9.50;;;4.80;97.00;;;;;;5050049;28;20400;-89
2023/01/27 02:02:46;;;;;;;14.00;9.30;;;4.80;97.00;;;;;;5048855;28;21117;-92
2023/01/27 02:05:20;;;;;;;14.70;9.80;;;4.80;97.00;;;;;;5048964;28;20399;-90
2023/01/27 02:08:16;;;;;;;12.75;8.25;;;4.80;97.00;;;;;;5049013;28;20554;-90
2023/01/27 02:10:42;;;;;;;15.15;8.75;;;4.70;97.10;;;;;;5049052;28;20486;-89
2023/01/27 02:13:08;;;;;;;16.17;9.30;;;4.90;97.30;;;;;;5049126;28;20491;-89
2023/01/27 02:15:34;;;;;;;15.90;8.60;;;4.90;97.30;;;;;;5048634;28;20425;-90
2023/01/27 02:18:01;;;;;;;13.67;8.50;;;4.70;97.30;;;;;;5066490;28;20415;-91
2023/01/27 02:20:54;;;;;;;14.48;7.80;;;4.70;97.30;;;;;;5049744;28;20766;-90
2023/01/27 02:23:19;;;;;;;14.82;7.95;;;4.70;97.40;;;;;;5065018;28;20422;-89
2023/01/27 02:26:14;;;;;;;14.43;7.60;;;4.90;97.50;;;;;;5050346;28;20494;-90
2023/01/27 02:28:40;;;;;;;13.43;7.63;;;4.60;97.30;;;;;;5049160;28;20428;-90
2023/01/27 02:31:05;;;;;;;12.33;6.50;;;4.70;97.30;;;;;;5049783;28;20451;-90
2023/01/27 02:33:31;;;;;;;13.03;5.47;;;4.70;97.30;;;;;;5066684;28;20418;-90
2023/01/27 02:36:02;;;;;;;10.70;5.22;;;4.70;97.30;;;;;;5049031;28;20415;-89
2023/01/27 02:38:33;;;;;;;9.98;4.22;;;4.70;97.10;;;;;;5066276;28;20495;-89
2023/01/27 02:41:06;;;;;;;10.02;3.50;;;4.70;96.80;;;;;;5049124;28;20418;-90
2023/01/27 02:43:32;;;;;;;8.50;2.60;;;4.60;96.80;;;;;;5049228;28;20395;-89
2023/01/27 02:45:57;;;;;;;9.33;2.40;;;4.60;96.70;;;;;;5048954;28;20404;-89
2023/01/27 02:48:23;;;;;;;8.00;2.15;;;4.70;96.50;;;;;;5052373;28;20755;-90
2023/01/27 02:50:49;;;;;;;5.53;1.70;;;4.70;96.40;;;;;;5070495;28;20479;-90
2023/01/27 02:53:14;;;;;;;6.37;1.67;;;4.70;96.30;;;;;;5053202;28;20756;-90
2023/01/27 02:55:40;;;;;;;4.87;0.93;;;4.70;96.00;;;;;;5053141;28;20411;-89
2023/01/27 02:58:05;;;;;;;5.05;0.90;;;4.70;95.50;;;;;;5069592;28;20407;-89
2023/01/27 03:00:31;;;;;;;4.70;0.80;;;4.70;95.20;;;;;;5053200;28;20921;-88
2023/01/27 03:02:57;;;;;;;4.20;0.50;;;5.00;95.00;;;;;;5052757;28;20415;-88
2023/01/27 03:05:23;;;;;;;4.60;0.70;;;4.70;94.90;;;;;;5069994;28;20434;-89
2023/01/27 03:07:48;;;;;;;4.88;0.90;;;4.70;94.80;;;;;;5069191;28;20837;-88
2023/01/27 03:10:14;;;;;;;4.90;0.77;;;4.70;94.70;;;;;;5069521;28;20899;-90
2023/01/27 03:12:39;;;;;;;4.90;1.20;;;5.00;94.60;;;;;;5069607;28;20400;-89
2023/01/27 03:20:34;;;;;;;3.83;0.60;;;4.70;94.40;;;;;;5069229;28;20419;-90
2023/01/27 03:22:59;;;;;;;3.50;0.60;;;4.70;94.50;;;;;;5069728;28;20938;-88
2023/01/27 03:25:25;;;;;;;5.40;0.80;;;4.70;94.50;;;;;;5052726;28;20457;-89
2023/01/27 03:27:50;;;;;;;4.00;0.70;;;4.70;94.60;;;;;;5069126;28;20499;-90
2023/01/27 03:30:16;;;;;;;3.60;0.52;;;4.70;94.30;;;;;;5052526;28;20408;-91
2023/01/27 03:32:45;;;;;;;4.93;0.50;;;4.70;94.20;;;;;;5052408;28;20434;-89
2023/01/27 03:35:13;;;;;;;4.57;0.60;;;4.80;94.20;;;;;;5069407;28;20408;-89
2023/01/27 03:48:36;;;;;;;4.18;1.00;;;4.50;93.90;;;;;;5068931;28;20408;-86
2023/01/27 03:51:04;;;;;;;3.90;0.80;;;4.50;93.30;;;;;;5051555;28;20473;-90
2023/01/27 03:53:30;;;;;;;5.30;0.68;;;4.50;93.10;;;;;;5052139;28;20436;-89
2023/01/27 03:55:56;;;;;;;4.43;1.10;;;4.40;92.90;;;;;;5052302;28;20395;-87
2023/01/27 03:58:24;;;;;;;4.63;1.10;;;4.40;92.90;;;;;;5051378;28;20408;-89
2023/01/27 04:00:55;;;;;;;4.75;1.50;;;4.40;93.20;;;;;;5051935;28;20914;-90
2023/01/27 04:08:58;;;;;;;5.13;0.90;;;4.30;93.60;;;;;;5068552;28;20400;-88
2023/01/27 04:14:09;;;;;;;3.58;0.90;;;4.20;93.80;;;;;;5068726;28;20400;-92
2023/01/27 04:16:38;;;;;;;4.15;0.88;;;4.20;94.00;;;;;;5051893;28;20760;-92
2023/01/27 04:19:07;;;;;;;3.58;0.77;;;4.20;94.20;;;;;;5052281;28;20768;-90
2023/01/27 04:21:33;;;;;;;4.00;0.95;;;4.20;94.20;;;;;;5051634;28;20732;-88
2023/01/27 04:23:59;;;;;;;5.10;0.98;;;4.10;94.10;;;;;;5051539;28;20467;-90
2023/01/27 04:26:25;;;;;;;2.77;0.70;;;4.10;94.00;;;;;;5051622;28;20419;-89
2023/01/27 04:28:51;;;;;;;5.20;1.10;;;4.10;94.10;;;;;;5051269;28;20410;-89
2023/01/27 04:31:16;;;;;;;5.85;0.98;;;4.10;94.30;;;;;;5051158;28;20420;-88
2023/01/27 04:33:43;;;;;;;4.80;1.20;;;4.10;94.50;;;;;;5051362;28;20407;-89
2023/01/27 04:36:09;;;;;;;3.55;0.98;;;4.10;94.30;;;;;;5051554;28;20407;-89
2023/01/27 04:38:35;;;;;;;5.28;1.05;;;4.00;94.30;;;;;;5051103;28;20400;-90
2023/01/27 04:41:00;;;;;;;4.22;1.20;;;4.00;94.50;;;;;;5068201;28;20853;-90
2023/01/27 04:43:26;;;;;;;4.90;0.88;;;4.00;94.40;;;;;;5051208;28;20883;-89
2023/01/27 04:45:51;;;;;;;4.90;1.10;;;4.00;94.60;;;;;;5051116;28;20883;-90
2023/01/27 04:48:17;;;;;;;4.53;1.30;;;4.10;94.60;;;;;;5051221;28;20595;-90
2023/01/27 04:50:43;;;;;;;4.50;1.65;;;4.20;94.80;;;;;;5050701;28;20416;-89
2023/01/27 04:53:08;;;;;;;6.37;1.83;;;3.90;94.80;;;;;;5051249;28;20404;-89
2023/01/27 04:55:34;;;;;;;4.90;2.10;;;4.00;94.80;;;;;;5051194;28;20443;-89
2023/01/27 04:57:59;;;;;;;6.28;2.15;;;4.00;94.90;;;;;;5067545;28;20831;-89
2023/01/27 05:00:25;;;;;;;4.68;1.92;;;3.90;94.70;;;;;;5050612;28;20473;-90
2023/01/27 05:02:51;;;;;;;5.23;1.67;;;4.00;94.60;;;;;;5050868;28;20923;-90
2023/01/27 05:05:16;;;;;;;5.07;1.23;;;4.00;94.30;;;;;;5050874;28;20407;-89
2023/01/27 05:07:42;;;;;;;5.47;1.00;;;3.90;93.70;;;;;;5050118;28;20517;-88
2023/01/27 05:10:08;;;;;;;3.57;0.70;;;4.10;93.60;;;;;;5049623;28;20412;-89
2023/01/27 05:12:34;;;;;;;3.75;0.80;;;4.00;93.10;;;;;;5049425;28;20412;-89
2023/01/27 05:14:59;;;;;;;4.43;0.77;;;4.00;93.10;;;;;;5050544;28;20414;-88
2023/01/27 05:17:29;;;;;;;2.30;0.80;;;4.00;93.30;;;;;;5066917;28;20403;-88
2023/01/27 05:19:55;;;;;;;3.05;0.60;;;4.00;93.40;;;;;;5067594;28;20483;-90
2023/01/27 05:22:20;;;;;;;4.68;0.95;;;4.00;93.40;;;;;;5066226;28;20846;-89
2023/01/27 05:24:46;;;;;;;4.07;0.90;;;4.00;93.40;;;;;;5050529;28;20411;-91
2023/01/27 05:27:11;;;;;;;4.67;1.00;;;4.00;93.70;;;;;;5049724;28;20519;-90
2023/01/27 05:29:37;;;;;;;4.28;1.00;;;4.10;93.80;;;;;;5049413;28;20906;-88
2023/01/27 05:32:03;;;;;;;4.93;1.20;;;4.00;93.70;;;;;;5050192;28;20484;-90
2023/01/27 05:34:28;;;;;;;3.83;1.07;;;4.00;94.10;;;;;;5066249;28;20818;-91
2023/01/27 05:36:54;;;;;;;3.83;0.97;;;4.00;94.00;;;;;;5066297;28;20400;-89
2023/01/27 05:39:19;;;;;;;3.00;0.85;;;4.00;93.90;;;;;;5050392;28;20404;-90
2023/01/27 05:41:45;;;;;;;4.00;0.90;;;4.00;94.00;;;;;;5049556;28;20416;-88
2023/01/27 05:44:11;;;;;;;3.63;0.60;;;4.00;93.70;;;;;;5049224;28;20412;-87
2023/01/27 05:46:39;;;;;;;3.80;0.60;;;4.00;92.90;;;;;;5066156;28;20432;-89
2023/01/27 05:49:04;;;;;;;3.58;0.90;;;4.00;92.80;;;;;;5050364;28;20744;-89
2023/01/27 05:51:35;;;;;;;2.97;0.90;;;4.20;92.50;;;;;;5066730;28;20506;-89
2023/01/27 05:54:01;;;;;;;3.17;0.50;;;4.00;92.40;;;;;;5066862;28;20427;-88
2023/01/27 05:56:27;;;;;;;3.35;0.50;;;4.00;92.60;;;;;;5049448;28;20408;-89
2023/01/27 05:58:54;;;;;;;3.63;0.60;;;4.10;92.60;;;;;;5056268;28;20436;-89
2023/01/27 06:01:22;;;;;;;3.60;0.52;;;4.00;93.00;;;;;;5052823;28;20845;-89
2023/01/27 06:03:48;;;;;;;3.00;0.50;;;4.00;92.70;;;;;;5049771;28;20407;-89
2023/01/27 06:06:16;;;;;;;4.85;0.90;;;4.00;93.00;;;;;;5066572;28;20445;-91
2023/01/27 06:08:42;;;;;;;3.45;0.60;;;4.00;92.90;;;;;;5066471;28;20798;-90
2023/01/27 06:11:08;;;;;;;4.28;0.70;;;4.20;92.90;;;;;;5049399;28;20404;-89
2023/01/27 06:13:34;;;;;;;3.10;0.60;;;4.00;93.00;;;;;;5048982;28;20458;-89
2023/01/27 06:16:05;;;;;;;4.22;0.60;;;4.20;93.00;;;;;;5049569;28;20457;-89
2023/01/27 06:18:31;;;;;;;2.60;0.47;;;4.00;92.90;;;;;;5049197;28;20403;-89
2023/01/27 06:20:59;;;;;;;4.90;0.70;;;4.10;93.00;;;;;;5049162;28;20416;-87
2023/01/27 06:23:26;;;;;;;2.95;0.60;;;4.00;93.00;;;;;;5065862;28;20485;-86
2023/01/27 06:25:52;;;;;;;4.32;0.50;;;4.00;92.90;;;;;;5049272;28;20400;-90
2023/01/27 06:28:17;;;;;;;3.15;0.57;;;4.00;93.00;;;;;;5049274;28;20431;-88
2023/01/27 06:30:43;;;;;;;2.80;0.60;;;4.00;93.20;;;;;;5066010;28;20829;-89
2023/01/27 06:33:09;;;;;;;3.70;0.50;;;4.10;93.20;;;;;;5064243;28;20782;-88
2023/01/27 06:35:37;;;;;;;3.92;0.60;;;4.00;93.10;;;;;;5065631;28;20404;-90
2023/01/27 06:38:05;;;;;;;3.33;0.70;;;4.10;93.10;;;;;;5046778;28;20400;-88
2023/01/27 06:40:33;;;;;;;2.08;0.40;;;4.10;93.10;;;;;;5048997;28;20469;-89
2023/01/27 06:42:58;;;;;;;3.28;0.70;;;4.00;93.20;;;;;;5065399;28;20434;-89
2023/01/27 06:45:25;;;;;;;3.07;0.50;;;4.10;93.30;;;;;;5049833;28;20439;-88
2023/01/27 06:47:59;;;;;;;3.97;0.70;;;4.00;93.30;;;;;;5049067;28;20454;-89
2023/01/27 06:50:26;;;;;;;4.72;0.60;;;4.10;93.40;;;;;;5065741;28;20416;-88
2023/01/27 06:52:52;;;;;;;3.63;0.60;;;4.20;93.50;;;;;;5049559;28;20475;-88
2023/01/27 06:55:18;;;;;;;4.53;0.53;;;4.20;93.50;;;;;;5051314;28;21025;-89
2023/01/27 06:57:47;;;;;;;3.33;0.80;;;4.10;93.40;;;;;;5065389;28;20392;-87
2023/01/27 07:00:14;;;;;;;4.20;0.85;;;4.10;93.40;;;;;;5058951;28;20400;-90
2023/01/27 07:02:39;;;;;;;3.90;0.80;;;4.10;93.60;;;;;;5049259;28;20404;-89
2023/01/27 07:05:05;;;;;;;4.97;0.60;;;4.10;93.50;;;;;;5065236;28;20408;-88
2023/01/27 07:07:31;;;;;;;3.13;0.60;;;4.10;93.50;;;;;;5065292;28;20567;-89
2023/01/27 07:09:57;;;;;;;5.37;0.70;;;4.10;93.20;;;;;;5048636;28;20512;-89
2023/01/27 07:12:22;;;;;;;4.45;0.60;;;4.10;93.50;;;;;;5049060;28;20991;-88
2023/01/27 07:14:48;;;;;;;2.42;0.63;;;4.00;93.50;;;;;;5048570;28;20801;-90
2023/01/27 07:17:14;;;;;;;4.75;0.40;;;4.00;93.60;;;;;;5048436;28;20899;-89
2023/01/27 07:19:40;;;;;;;4.93;0.43;;;4.00;93.40;;;;;;5049385;28;20412;-89
2023/01/27 07:22:05;;;;;;;3.33;0.50;;;4.00;93.40;;;;;;5049341;28;20416;-89
2023/01/27 07:24:31;;;;;;;5.03;0.57;;;4.00;93.40;;;;;;5065673;28;20408;-89
2023/01/27 07:26:57;;;;;;;3.40;0.60;;;4.00;93.30;;;;;;5065389;28;20519;-89
2023/01/27 07:29:22;;;;;;;3.20;0.57;;;4.00;93.40;;;;;;5049057;28;20770;-88
2023/01/27 07:31:48;;;;;;;3.77;0.50;;;4.00;93.30;;;;;;5047942;28;20766;-88
2023/01/27 07:34:14;;;;;;;3.53;0.70;;;4.00;93.40;;;;;;5067822;28;20448;-92
2023/01/27 07:36:39;;;;;;;2.40;0.50;;;4.00;93.30;;;;;;5052832;28;20476;-89
2023/01/27 07:39:05;;;;;;;3.70;0.60;;;4.00;93.40;;;;;;5068677;28;20911;-88
2023/01/27 07:41:30;;;;;;;3.87;0.50;;;4.00;93.40;;;;;;5068875;28;20480;-88
2023/01/27 07:43:56;;;;;;;4.25;0.90;;;4.00;93.50;;;;;;5051581;28;20903;-87
2023/01/27 07:46:22;;;;;;;3.17;1.20;;;4.00;93.30;;;;;;5051742;28;20400;-89
2023/01/27 07:48:47;;;;;;;3.07;1.43;;;4.00;93.40;;;;;;5051286;28;20410;-87
2023/01/27 07:51:14;;;;;;;4.32;1.27;;;3.90;93.60;;;;;;5051825;28;20932;-89
2023/01/27 07:53:40;;;;;;;4.00;1.20;;;4.10;93.40;;;;;;5051335;28;20450;-89
2023/01/27 07:56:10;;;;;;;5.65;1.58;;;4.10;93.50;;;;;;5051224;28;20478;-89
2023/01/27 07:58:40;;;;;;;2.60;0.50;;;4.10;93.40;;;;;;5052374;28;20483;-88
2023/01/27 08:01:08;;;;;;;4.50;0.70;;;4.10;92.80;;;;;;5068221;28;20495;-89
2023/01/27 08:03:34;;;;;;;2.45;0.50;;;4.10;93.10;;;;;;5068445;28;20420;-90
2023/01/27 08:06:09;;;;;;;2.63;0.87;;;4.20;93.00;;;;;;5068794;28;20913;-90
2023/01/27 08:08:34;;;;;;;2.67;0.57;;;4.10;93.00;;;;;;5068363;28;20443;-88
2023/01/27 08:11:02;;;;;;;3.03;0.77;;;4.20;93.10;;;;;;5067722;28;20443;-88
2023/01/27 08:13:28;;;;;;;3.58;0.60;;;4.20;93.00;;;;;;5051641;28;20767;-89
2023/01/27 08:15:58;;;;;;;4.35;0.70;;;4.20;93.00;;;;;;5051311;28;20950;-88
2023/01/27 08:18:26;;;;;;;2.53;0.60;;;4.20;93.10;;;;;;5051191;28;20396;-88
2023/01/27 08:20:53;;;;;;;3.00;0.50;;;4.30;93.10;;;;;;5068030;28;20408;-88
2023/01/27 08:23:21;;;;;;;1.35;0.30;;;4.30;93.10;;;;;;5050868;28;20427;-87
2023/01/27 08:25:51;;;;;;;2.37;0.37;;;4.30;93.00;;;;;;5051194;28;20497;-88
2023/01/27 08:28:18;;;;;;;2.27;0.33;;;4.40;93.10;;;;;;5051146;28;20510;-89
2023/01/27 08:30:45;;;;;;;2.58;0.40;;;4.40;93.00;;;;;;5050941;28;20774;-89
2023/01/27 08:33:11;;;;;;;2.75;0.73;;;4.40;92.80;;;;;;5051249;28;20434;-89
2023/01/27 08:35:41;;;;;;;3.25;0.70;;;4.40;92.90;;;;;;5051048;28;20408;-90
2023/01/27 08:38:07;;;;;;;2.88;0.60;;;4.50;93.00;;;;;;5067822;28;20477;-89
2023/01/27 08:40:33;;;;;;;2.80;0.57;;;4.50;92.90;;;;;;5067844;28;20914;-89
2023/01/27 08:43:00;;;;;;;2.28;0.68;;;4.50;92.90;;;;;;5067458;28;20408;-88
2023/01/27 08:45:26;;;;;;;3.45;0.50;;;4.50;93.00;;;;;;5049598;28;20423;-89
2023/01/27 08:47:52;;;;;;;3.15;0.70;;;4.50;92.90;;;;;;5050913;28;20449;-89
2023/01/27 08:50:18;;;;;;;2.25;0.60;;;4.60;93.20;;;;;;5050695;28;20416;-88
2023/01/27 08:52:43;;;;;;;3.35;0.45;;;4.60;93.30;;;;;;5050310;28;20473;-88
2023/01/27 08:55:09;;;;;;;2.95;0.52;;;4.60;93.20;;;;;;5050659;28;20400;-88
2023/01/27 08:57:35;;;;;;;6.00;1.20;;;4.70;93.40;;;;;;5067313;28;20400;-89
2023/01/27 09:00:01;;;;;;;2.97;0.40;;;4.60;93.30;;;;;;5050489;28;20427;-89
2023/01/27 09:02:27;;;;;;;3.17;0.30;;;4.70;93.80;;;;;;5066640;28;20415;-87
2023/01/27 09:04:52;;;;;;;3.17;0.50;;;4.90;93.70;;;;;;5050435;28;21002;-89
2023/01/27 09:07:18;;;;;;;4.35;0.55;;;4.70;93.70;;;;;;5049958;28;20442;-88
2023/01/27 09:09:47;;;;;;;3.80;0.50;;;4.70;93.80;;;;;;5050467;28;20466;-87
2023/01/27 09:12:13;;;;;;;3.87;0.60;;;4.80;94.00;;;;;;5050275;28;20430;-89
2023/01/27 09:14:39;;;;;;;6.23;0.80;;;4.80;94.10;;;;;;5049924;28;20416;-88
2023/01/27 09:17:05;;;;;;;4.93;0.70;;;4.90;94.20;;;;;;5050067;28;20451;-89
2023/01/27 09:19:30;;;;;;;4.68;0.50;;;4.90;94.30;;;;;;5066498;28;20821;-87
2023/01/27 09:21:56;;;;;;;5.90;0.68;;;4.90;94.40;;;;;;5050082;28;20910;-88
2023/01/27 09:24:22;;;;;;;4.50;0.83;;;4.90;94.40;;;;;;5066361;28;20403;-87
2023/01/27 09:26:48;;;;;;;5.47;1.10;;;5.00;94.60;;;;;;5050051;28;20430;-89
2023/01/27 09:29:13;;;;;;;5.25;1.00;;;5.00;94.60;;;;;;5066323;28;20403;-89
2023/01/27 09:31:39;;;;;;;3.15;0.75;;;5.00;94.70;;;;;;5049465;28;20404;-89
2023/01/27 09:34:04;;;;;;;5.00;0.85;;;5.00;94.70;;;;;;5066435;28;20505;-87
2023/01/27 09:36:32;;;;;;;6.20;0.67;;;5.00;94.80;;;;;;5049577;28;20415;-88
2023/01/27 09:39:05;;;;;;;5.00;0.70;;;5.10;94.80;;;;;;5049945;28;20476;-88
2023/01/27 09:42:08;;;;;;;6.20;1.10;;;5.20;94.80;;;;;;5066785;28;20419;-88
2023/01/27 09:44:52;;;;;;;8.70;1.10;;;5.10;94.90;;;;;;5049587;28;20481;-89
2023/01/27 09:47:27;;;;;;;5.90;0.90;;;5.20;94.70;;;;;;5049563;28;20436;-89
2023/01/27 09:50:20;;;;;;;7.38;0.63;;;5.20;94.70;;;;;;5066468;28;20475;-88
2023/01/27 09:53:21;;;;;;;4.38;0.70;;;5.20;94.70;;;;;;5066776;28;20910;-87
2023/01/27 09:56:12;;;;;;;6.28;0.57;;;5.20;94.70;;;;;;5066319;28;20772;-88
2023/01/27 09:58:56;;;;;;;5.88;0.75;;;5.20;94.90;;;;;;5048738;28;20415;-88
2023/01/27 10:01:38;;;;;;;5.97;0.83;;;5.30;94.90;;;;;;5049847;28;20767;-87
2023/01/27 10:04:33;;;;;;;6.90;0.80;;;5.30;95.00;;;;;;5049714;28;20427;-88
2023/01/27 10:07:04;;;;;;;7.50;0.80;;;5.40;95.20;;;;;;5043473;28;20477;-87
2023/01/27 10:09:49;;;;;;;6.32;0.80;;;5.50;95.30;;;;;;5066302;28;20444;-89
2023/01/27 10:12:26;;;;;;;6.50;0.90;;;5.60;94.90;;;;;;5061338;28;20993;-88
2023/01/27 10:15:07;;;;;;;4.28;0.50;;;5.70;94.70;;;;;;5055536;28;20938;-89
2023/01/27 10:17:54;;;;;;;4.97;0.60;;;5.80;94.30;;;;;;5063402;28;20441;-88
2023/01/27 10:20:43;;;;;;;3.65;0.30;;;5.80;93.70;;;;;;5065891;28;20412;-89
2023/01/27 10:23:33;;;;;;;1.23;0.20;;;5.80;93.30;;;;;;5049400;28;20420;-90
2023/01/27 10:26:32;;;;;;;0.80;0.20;;;5.90;92.90;;;;;;5049242;28;21043;-89
2023/01/27 10:29:12;;;;;;;1.83;0.20;;;6.00;92.50;;;;;;5049177;28;20415;-89
2023/01/27 10:31:54;;;;;;;2.88;0.38;;;6.10;92.60;;;;;;5049452;28;20752;-89
2023/01/27 10:34:31;;;;;;;1.70;0.30;;;6.10;92.30;;;;;;5049235;28;20552;-91
2023/01/27 10:37:09;;;;;;;2.78;0.30;;;6.10;92.40;;;;;;5048877;28;20427;-87
2023/01/27 10:39:48;;;;;;;3.17;0.30;;;6.10;92.30;;;;;;5049247;28;20583;-89
2023/01/27 10:42:17;;;;;;;3.13;0.40;;;6.10;92.30;;;;;;5048770;28;20431;-92
2023/01/27 10:44:51;;;;;;;2.47;0.30;;;6.10;92.70;;;;;;5066211;28;20411;-89
2023/01/27 10:47:45;;;;;;;2.55;0.30;;;6.10;92.40;;;;;;5049574;28;20431;-91
2023/01/27 10:50:48;;;;;;;3.97;0.47;;;6.10;92.50;;;;;;5065352;28;20412;-88
2023/01/27 10:53:48;;;;;;;3.53;0.50;;;6.10;92.50;;;;;;5031149;28;20444;-90
2023/01/27 10:56:26;;;;;;;2.60;0.50;;;6.20;92.30;;;;;;5049579;28;20452;-89
2023/01/27 10:59:05;;;;;;;4.68;1.02;;;6.20;92.40;;;;;;5049040;28;20510;-90
2023/01/27 11:01:45;;;;;;;4.45;0.50;;;6.20;92.50;;;;;;5049590;28;20488;-88
2023/01/27 11:04:13;;;;;;;3.25;0.50;;;6.30;92.30;;;;;;5048813;28;20416;-89
2023/01/27 11:06:41;;;;;;;3.33;1.38;;;6.30;92.70;;;;;;5049488;28;21046;-88
2023/01/27 11:09:26;;;;;;;5.47;2.22;;;6.30;92.40;;;;;;5067633;28;20403;-89
2023/01/27 11:11:54;;;;;;;3.85;1.38;;;6.50;92.50;;;;;;5052384;28;20402;-87
2023/01/27 11:14:27;;;;;;;4.05;0.60;;;6.90;92.30;;;;;;5052983;28;20399;-88
2023/01/27 11:17:25;;;;;;;2.50;0.50;;;6.60;91.70;;;;;;5069591;28;20422;-90
2023/01/27 11:20:25;;;;;;;1.27;0.30;;;6.60;91.30;;;;;;5052238;28;20411;-90
2023/01/27 11:23:09;;;;;;;1.25;0.20;;;6.70;90.30;;;;;;5069779;28;20561;-88
2023/01/27 11:25:57;;;;;;;1.17;0.20;;;6.90;87.60;;;;;;5052514;28;20915;-91
2023/01/27 11:28:52;;;;;;;0.70;0.10;;;6.70;88.00;;;;;;5052813;28;20477;-90
2023/01/27 11:32:11;;;;;;;0.40;0.10;;;6.70;85.70;;;;;;5065086;28;20412;-89
2023/01/27 11:35:07;;;;;;;1.55;0.20;;;6.70;86.50;;;;;;5011988;28;20416;-89
2023/01/27 11:37:41;;;;;;;1.77;0.35;;;6.70;88.50;;;;;;5069061;28;20492;-88
2023/01/27 11:40:14;;;;;;;2.30;0.40;;;6.60;90.00;;;;;;5069374;28;20414;-89
2023/01/27 11:42:40;;;;;;;1.23;0.40;;;6.50;90.50;;;;;;5068643;28;20504;-90
2023/01/27 11:45:11;;;;;;;2.60;0.40;;;6.50;90.60;;;;;;5052455;28;20403;-91
2023/01/27 11:47:39;;;;;;;1.73;0.50;;;6.40;91.20;;;;;;5051875;28;20439;-90
2023/01/27 11:50:06;;;;;;;2.13;0.50;;;6.30;91.20;;;;;;5052033;28;20415;-89
2023/01/27 11:52:32;;;;;;;1.67;0.40;;;6.20;91.60;;;;;;5052485;28;20506;-93
2023/01/27 11:55:13;;;;;;;2.28;0.50;;;6.20;90.80;;;;;;5068512;28;20512;-91
2023/01/27 11:57:45;;;;;;;1.10;0.40;;;6.10;90.80;;;;;;5052304;28;20412;-89
2023/01/27 12:00:24;;;;;;;1.60;0.40;;;6.00;90.60;;;;;;5068417;28;20460;-89
2023/01/27 12:03:13;;;;;;;1.30;0.60;;;6.00;91.10;;;;;;5068984;28;20980;-89
2023/01/27 12:05:47;;;;;;;1.25;0.50;;;6.00;91.20;;;;;;5052023;28;20914;-90
2023/01/27 12:08:43;;;;;;;1.83;0.65;;;5.90;91.10;;;;;;5051842;28;20515;-90
2023/01/27 12:11:18;;;;;;;1.52;0.70;;;5.90;90.40;;;;;;5051991;28;20412;-91
2023/01/27 12:13:56;;;;;;;1.60;0.70;;;5.90;90.60;;;;;;5051521;28;20442;-88
2023/01/27 12:17:01;;;;;;;2.05;0.80;;;5.80;90.00;;;;;;5068817;28;20520;-90
2023/01/27 12:19:39;;;;;;;2.33;0.80;;;5.70;90.60;;;;;;4994400;28;20433;-91
2023/01/27 12:22:33;;;;;;;2.05;1.50;;;5.70;90.90;;;;;;5011175;28;20425;-89
2023/01/27 12:25:07;;;;;;;2.95;2.03;;;5.70;91.30;;;;;;5036143;28;20407;-91
2023/01/27 12:27:41;;;;;;;3.83;2.30;;;5.70;91.90;;;;;;5051618;28;20443;-88
2023/01/27 12:30:24;;;;;;;2.40;1.15;;;5.60;92.30;;;;;;5051431;28;21190;-89
2023/01/27 12:32:51;;;;;;;3.00;1.20;;;5.60;91.60;;;;;;5051149;28;20392;-90
2023/01/27 12:35:28;;;;;;;2.90;0.98;;;5.70;91.60;;;;;;5051471;28;20514;-88
2023/01/27 12:38:23;;;;;;;3.03;1.38;;;5.60;91.60;;;;;;5067776;28;20455;-89
2023/01/27 12:41:07;;;;;;;2.20;1.20;;;5.60;91.70;;;;;;5068098;28;20408;-90
2023/01/27 12:43:53;;;;;;;2.43;0.97;;;5.60;91.80;;;;;;5056313;28;20422;-89
2023/01/27 12:46:23;;;;;;;1.80;1.20;;;5.60;91.60;;;;;;5067356;28;20490;-90
2023/01/27 12:49:14;;;;;;;1.75;1.00;;;5.80;91.70;;;;;;5051103;28;20444;-89
2023/01/27 12:51:47;;;;;;;2.33;0.98;;;5.60;91.20;;;;;;5045697;28;20424;-90
2023/01/27 12:54:24;;;;;;;2.80;1.58;;;5.50;90.70;;;;;;5068177;28;20416;-89
2023/01/27 12:56:52;;;;;;;3.13;1.53;;;5.50;91.00;;;;;;5050963;28;20400;-89
2023/01/27 12:59:20;;;;;;;2.53;1.63;;;5.50;91.20;;;;;;5050961;28;20486;-89
2023/01/27 13:02:19;;;;;;;2.00;1.65;;;5.50;91.10;;;;;;5051142;28;20403;-90
2023/01/27 13:04:54;;;;;;;3.55;1.85;;;5.40;91.50;;;;;;5047723;28;20803;-91
2023/01/27 13:07:28;;;;;;;2.42;1.95;;;5.40;91.50;;;;;;5051106;28;20987;-89
2023/01/27 13:09:57;;;;;;;4.05;2.80;;;5.40;91.60;;;;;;5035749;28;20413;-87
2023/01/27 13:12:29;;;;;;;3.55;2.78;;;5.40;91.60;;;;;;5054401;28;20497;-88
2023/01/27 13:14:57;;;;;;;3.22;2.90;;;5.40;92.10;;;;;;5066890;28;20408;-90
2023/01/27 13:17:42;;;;;;;3.65;3.00;;;5.70;91.50;;;;;;5066599;28;20415;-89
2023/01/27 13:20:24;;;;;;;3.28;2.88;;;5.30;91.40;;;;;;5064911;28;20419;-89
2023/01/27 13:23:14;;;;;;;3.77;3.47;;;5.40;91.30;;;;;;5066247;28;20416;-88
2023/01/27 13:26:07;;;;;;;4.18;3.78;;;5.30;91.60;;;;;;5066352;28;20418;-89
2023/01/27 13:29:07;;;;;;;4.38;3.97;;;5.30;91.40;;;;;;5050098;28;20454;-89
2023/01/27 13:31:35;;;;;;;5.00;4.60;;;5.30;91.70;;;;;;5048720;28;20416;-88
2023/01/27 13:34:28;;;;;;;4.82;4.43;;;5.30;91.60;;;;;;5050096;28;20436;-90
2023/01/27 13:37:08;;;;;;;4.40;4.10;;;5.30;91.70;;;;;;5027701;28;20902;-88
2023/01/27 13:39:52;;;;;;;4.60;4.20;;;5.30;92.00;;;;;;5048920;28;20415;-89
2023/01/27 13:42:37;;;;;;;4.38;4.07;;;5.30;92.00;;;;;;5066490;28;20407;-88
2023/01/27 13:45:06;;;;;;;5.00;4.50;;;5.30;91.90;;;;;;5050373;28;20411;-90
2023/01/27 13:47:52;;;;;;;5.67;5.17;;;5.30;91.80;;;;;;5065653;28;20558;-89
2023/01/27 13:50:31;;;;;;;4.90;4.40;;;5.30;92.50;;;;;;5049797;28;20426;-90